Time;durP1;ratioP1;P1;durP2;ratioP2;P2;SDS_P1;SDS_P2;PMS_P1;PMS_P2;Temp;Humidity;BMP_temperature;BMP_pressure;BME280_temperature;BME280_humidity;BME280_pressure;Samples;Min_cycle;Max_cycle;Signal;HPM_P1;HPM_P2
2022/11/28 00:02:07;;;;;;;3.35;1.90;;;;;;;2.54;81.72;93933.56;5072823;28;20027;-34
2022/11/28 00:04:32;;;;;;;3.28;2.28;;;;;;;2.38;82.40;93914.41;5090682;28;20051;-35
2022/11/28 00:06:58;;;;;;;3.70;2.33;;;;;;;2.49;82.46;93928.81;5072202;28;20126;-35
2022/11/28 00:09:24;;;;;;;4.75;2.65;;;;;;;2.53;82.49;93937.56;5090459;28;20024;-34
2022/11/28 00:11:49;;;;;;;7.07;3.22;;;;;;;2.43;82.95;93928.03;5090517;28;20118;-35
2022/11/28 00:14:16;;;;;;;9.95;6.38;;;;;;;2.48;83.33;93930.06;5090493;28;20504;-35
2022/11/28 00:16:42;;;;;;;10.55;5.82;;;;;;;2.54;83.32;93930.84;5090069;28;20040;-35
2022/11/28 00:19:08;;;;;;;10.57;5.20;;;;;;;2.63;83.23;93933.41;5070411;28;20572;-35
2022/11/28 00:21:33;;;;;;;12.27;5.72;;;;;;;2.63;82.38;93935.38;5070388;28;20107;-35
2022/11/28 00:24:00;;;;;;;8.80;4.72;;;;;;;2.45;82.46;93914.69;5070200;28;20288;-35
2022/11/28 00:26:28;;;;;;;5.63;3.65;;;;;;;2.61;82.65;93927.69;5084219;28;20102;-35
2022/11/28 00:28:54;;;;;;;4.32;3.35;;;;;;;2.62;82.96;93940.06;5080391;28;20568;-35
2022/11/28 00:31:22;;;;;;;6.55;3.72;;;;;;;2.69;82.80;93930.69;5069998;28;20458;-34
2022/11/28 00:33:48;;;;;;;7.05;4.45;;;;;;;2.68;82.19;93924.53;5070199;28;20103;-35
2022/11/28 00:36:14;;;;;;;4.40;3.20;;;;;;;2.59;82.10;93926.69;5069993;28;20091;-34
2022/11/28 00:38:40;;;;;;;3.42;2.35;;;;;;;2.55;82.00;93935.09;5071636;28;20389;-35
2022/11/28 00:41:14;;;;;;;2.38;1.80;;;;;;;2.56;82.24;93931.13;5094253;28;20023;-35
2022/11/28 00:43:40;;;;;;;4.90;3.17;;;;;;;2.50;82.65;93929.59;5094066;28;20032;-35
2022/11/28 00:46:06;;;;;;;4.28;2.60;;;;;;;2.44;82.79;93940.44;5094394;28;20073;-35
2022/11/28 00:48:33;;;;;;;3.78;2.50;;;;;;;2.39;82.83;93938.44;5094065;28;20474;-35
2022/11/28 00:51:20;;;;;;;4.70;2.22;;;;;;;2.40;82.55;93931.00;5094093;28;20032;-35
2022/11/28 00:53:47;;;;;;;3.13;2.30;;;;;;;2.44;82.81;93932.28;5093943;28;20081;-35
2022/11/28 00:56:14;;;;;;;2.45;2.20;;;;;;;2.34;83.15;93932.94;5094238;28;20028;-35
2022/11/28 00:58:40;;;;;;;4.90;2.95;;;;;;;2.30;83.57;93930.41;5093793;28;20779;-35
2022/11/28 01:01:18;;;;;;;2.13;1.98;;;;;;;2.41;83.16;93922.34;5093872;28;20031;-35
2022/11/28 01:03:44;;;;;;;3.08;2.15;;;;;;;2.41;82.55;93924.31;5093814;28;20036;-35
2022/11/28 01:06:10;;;;;;;2.47;2.05;;;;;;;2.38;82.48;93914.41;5093457;28;20063;-34
2022/11/28 01:08:36;;;;;;;2.85;1.90;;;;;;;2.36;82.33;93925.03;5094013;28;20032;-35
2022/11/28 01:11:02;;;;;;;1.90;1.80;;;;;;;2.48;82.26;93918.41;5093911;28;20419;-35
2022/11/28 01:13:28;;;;;;;2.20;1.65;;;;;;;2.46;82.28;93920.88;5093842;28;20132;-34
2022/11/28 01:15:53;;;;;;;5.28;1.50;;;;;;;2.38;82.06;93920.59;5093784;28;20028;-35
2022/11/28 01:18:19;;;;;;;1.70;1.60;;;;;;;2.31;82.71;93923.75;5079613;28;20054;-35
2022/11/28 01:20:44;;;;;;;1.80;1.70;;;;;;;2.37;82.84;93918.34;5073268;28;20162;-35
2022/11/28 01:23:10;;;;;;;1.58;1.40;;;;;;;2.29;82.66;93907.91;5073094;28;20485;-35
2022/11/28 01:25:36;;;;;;;1.75;1.63;;;;;;;2.34;82.98;93909.16;5080393;28;20036;-35
2022/11/28 01:28:01;;;;;;;3.40;2.47;;;;;;;2.44;82.02;93907.00;5090626;28;20020;-35
2022/11/28 01:30:26;;;;;;;3.10;2.50;;;;;;;2.44;82.26;93912.44;5072924;28;20112;-35
2022/11/28 01:32:52;;;;;;;2.72;2.33;;;;;;;2.42;81.77;93910.22;5073247;28;20035;-35
2022/11/28 01:35:18;;;;;;;3.50;2.60;;;;;;;2.39;81.65;93905.72;5077015;28;20031;-34
2022/11/28 01:37:43;;;;;;;3.17;2.30;;;;;;;2.49;81.45;93900.84;5093381;28;20016;-35
2022/11/28 01:40:11;;;;;;;2.75;2.15;;;;;;;2.46;81.39;93904.53;5093132;28;20536;-35
2022/11/28 01:42:37;;;;;;;2.67;2.47;;;;;;;2.42;81.40;93910.22;5093009;28;20070;-34
2022/11/28 01:45:18;;;;;;;3.25;1.88;;;;;;;2.33;81.93;93890.56;5093002;28;20055;-35
2022/11/28 01:47:44;;;;;;;3.22;2.60;;;;;;;2.36;82.43;93903.97;5092832;28;20028;-35
2022/11/28 01:50:10;;;;;;;3.78;3.03;;;;;;;2.42;82.34;93904.78;5074093;28;20040;-35
2022/11/28 01:52:37;;;;;;;4.90;3.05;;;;;;;2.40;82.23;93896.34;5092814;28;20042;-34
2022/11/28 01:55:04;;;;;;;5.10;3.75;;;;;;;2.43;81.70;93897.31;5093116;28;20036;-34
2022/11/28 01:57:30;;;;;;;12.00;5.68;;;;;;;2.33;81.89;93898.75;5074919;28;20027;-35
2022/11/28 02:00:17;;;;;;;6.57;3.85;;;;;;;2.28;82.78;93895.50;5092960;28;20580;-35
2022/11/28 02:02:48;;;;;;;3.55;2.78;;;;;;;2.26;83.17;93897.22;5092606;28;20064;-35
2022/11/28 02:05:16;;;;;;;5.68;3.78;;;;;;;2.34;82.88;93892.81;5092488;28;20054;-35
2022/11/28 02:07:42;;;;;;;4.80;3.20;;;;;;;2.29;82.87;93891.56;5092706;28;20050;-35
2022/11/28 02:10:10;;;;;;;5.00;3.17;;;;;;;2.34;83.06;93892.81;5092584;28;20115;-35
2022/11/28 02:12:58;;;;;;;4.25;2.60;;;;;;;2.28;82.82;93890.06;5092778;28;20063;-34
2022/11/28 02:15:57;;;;;;;3.80;2.60;;;;;;;2.28;82.99;93883.84;5074426;28;20036;-34
2022/11/28 02:18:41;;;;;;;3.22;2.67;;;;;;;2.24;82.95;93880.59;5078003;28;20032;-35
2022/11/28 02:21:07;;;;;;;3.85;3.00;;;;;;;2.21;83.76;93876.13;5072158;28;20515;-35
2022/11/28 02:24:19;;;;;;;3.42;2.47;;;;;;;2.25;83.63;93887.56;5072054;28;20032;-34
2022/11/28 02:27:06;;;;;;;2.60;2.40;;;;;;;2.25;82.93;93880.09;5088652;28;20454;-35
2022/11/28 02:30:03;;;;;;;2.83;2.35;;;;;;;2.33;83.04;93891.31;5076865;28;20024;-35
2022/11/28 02:32:53;;;;;;;2.50;2.22;;;;;;;2.35;83.08;93883.41;5065999;28;20055;-34
2022/11/28 02:36:02;;;;;;;3.10;2.47;;;;;;;2.36;82.93;93876.00;5092348;28;20032;-34
2022/11/28 02:38:30;;;;;;;4.55;3.50;;;;;;;2.27;83.01;93871.47;5091951;28;20067;-34
2022/11/28 02:41:07;;;;;;;4.13;3.72;;;;;;;2.18;82.63;93871.66;5092020;28;20077;-35
2022/11/28 02:43:47;;;;;;;3.58;3.20;;;;;;;2.16;82.62;93871.38;5074140;28;20046;-34
2022/11/28 02:46:14;;;;;;;2.35;2.13;;;;;;;2.15;82.68;93865.19;5091700;28;20032;-34
2022/11/28 02:48:45;;;;;;;2.58;2.10;;;;;;;2.21;82.99;93871.41;5073665;28;20063;-35
2022/11/28 02:51:21;;;;;;;3.15;1.88;;;;;;;2.22;82.37;93869.44;5091996;28;20035;-35
2022/11/28 02:53:47;;;;;;;2.75;1.90;;;;;;;2.17;82.75;93872.88;5073827;28;20032;-35
2022/11/28 02:56:13;;;;;;;3.10;2.42;;;;;;;2.23;82.53;93876.41;5073898;28;20031;-35
2022/11/28 02:58:38;;;;;;;3.08;2.63;;;;;;;2.20;82.27;93871.91;5091518;28;20412;-34
2022/11/28 03:01:11;;;;;;;3.42;2.75;;;;;;;2.21;82.16;93876.13;5091567;28;20027;-35
2022/11/28 03:04:18;;;;;;;2.53;2.05;;;;;;;2.18;82.72;93871.66;5074251;28;20030;-35
2022/11/28 03:07:06;;;;;;;5.07;2.03;;;;;;;2.19;82.73;93873.88;5073164;28;20040;-34
2022/11/28 03:09:59;;;;;;;2.13;1.92;;;;;;;2.18;81.75;93863.47;5091346;28;20032;-35
2022/11/28 03:12:46;;;;;;;2.40;1.77;;;;;;;2.11;81.89;93866.63;5091671;28;20038;-35
2022/11/28 03:15:13;;;;;;;2.88;1.92;;;;;;;2.01;82.92;93868.81;5091353;28;20117;-35
2022/11/28 03:18:11;;;;;;;2.50;2.08;;;;;;;1.97;82.93;93868.25;5065016;28;20035;-35
2022/11/28 03:20:45;;;;;;;2.88;1.98;;;;;;;2.08;82.45;93870.34;5015695;28;20035;-34
2022/11/28 03:23:16;;;;;;;3.03;2.35;;;;;;;2.04;82.17;93870.53;5071126;28;20103;-35
2022/11/28 03:26:09;;;;;;;3.28;2.47;;;;;;;2.11;81.83;93866.63;5078666;28;20024;-34
2022/11/28 03:28:53;;;;;;;2.03;1.80;;;;;;;2.01;82.04;93871.53;5080278;28;20489;-34
2022/11/28 03:31:25;;;;;;;4.07;2.47;;;;;;;1.89;82.30;93861.00;5070758;28;20047;-34
2022/11/28 03:33:53;;;;;;;3.65;2.60;;;;;;;2.00;82.18;93861.84;5052802;28;20035;-35
2022/11/28 03:36:28;;;;;;;7.32;4.60;;;;;;;1.94;82.05;93861.06;5069498;28;20123;-35
2022/11/28 03:38:59;;;;;;;8.02;4.85;;;;;;;1.95;82.31;93865.28;5070928;28;20090;-34
2022/11/28 03:41:33;;;;;;;9.48;4.90;;;;;;;1.80;83.32;93867.38;5052947;28;20028;-34
2022/11/28 03:43:59;;;;;;;8.98;6.18;;;;;;;1.76;83.55;93874.25;5069390;28;20043;-35
2022/11/28 03:46:32;;;;;;;8.32;5.18;;;;;;;1.79;83.36;93867.88;5069474;28;20081;-35
2022/11/28 03:48:59;;;;;;;6.97;4.40;;;;;;;1.75;83.54;93875.50;5069688;28;20465;-34
2022/11/28 03:51:31;;;;;;;5.25;3.40;;;;;;;1.86;83.68;93875.59;5069601;28;20412;-35
2022/11/28 03:54:07;;;;;;;5.05;3.67;;;;;;;1.90;83.26;93876.13;5070401;28;20444;-34
2022/11/28 03:56:38;;;;;;;9.20;4.13;;;;;;;1.88;82.31;93873.16;5052553;28;20035;-35
2022/11/28 03:59:09;;;;;;;6.90;3.92;;;;;;;1.87;82.14;93875.13;5070615;28;20025;-35
2022/11/28 04:01:46;;;;;;;7.20;4.50;;;;;;;1.71;82.46;93872.97;5070601;28;20028;-34
2022/11/28 04:04:26;;;;;;;10.75;5.53;;;;;;;1.74;83.28;93871.28;5070634;28;20040;-34
2022/11/28 04:06:55;;;;;;;9.60;5.50;;;;;;;1.69;83.35;93874.72;5070019;28;20059;-35
2022/11/28 04:09:39;;;;;;;12.45;6.55;;;;;;;1.70;83.57;93870.75;5052714;28;20028;-34
2022/11/28 04:12:53;;;;;;;8.73;4.75;;;;;;;1.70;83.57;93885.09;5069040;28;20055;-35
2022/11/28 04:15:28;;;;;;;11.68;7.85;;;;;;;1.75;83.22;93878.97;5064454;28;20052;-34
2022/11/28 04:18:29;;;;;;;10.40;7.55;;;;;;;1.78;83.37;93878.00;5072570;28;20024;-34
2022/11/28 04:21:07;;;;;;;32.58;13.07;;;;;;;1.84;83.29;93875.34;5034581;28;20466;-35
2022/11/28 04:23:33;;;;;;;11.30;6.82;;;;;;;1.86;83.48;93881.81;5090265;28;20416;-35
2022/11/28 04:26:14;;;;;;;6.13;4.90;;;;;;;1.76;83.15;93868.81;5080191;28;20089;-35
2022/11/28 04:28:40;;;;;;;5.18;3.88;;;;;;;1.81;83.19;93879.03;5064297;28;20112;-34
2022/11/28 04:31:07;;;;;;;6.40;4.63;;;;;;;1.87;83.08;93886.00;5070210;28;20028;-34
2022/11/28 04:33:37;;;;;;;9.38;6.63;;;;;;;1.94;82.62;93887.53;5052034;28;20497;-34
2022/11/28 04:36:04;;;;;;;10.50;5.93;;;;;;;1.91;83.11;93878.34;5052279;28;20389;-34
2022/11/28 04:38:31;;;;;;;4.75;4.25;;;;;;;1.95;82.81;93878.16;5052289;28;20063;-34
2022/11/28 04:41:10;;;;;;;4.25;3.28;;;;;;;1.94;83.03;93880.13;5052060;28;20024;-35
2022/11/28 04:43:49;;;;;;;4.47;3.10;;;;;;;2.00;82.16;93880.91;5052072;28;20112;-34
2022/11/28 04:46:23;;;;;;;3.90;2.70;;;;;;;2.08;81.96;93876.53;5052293;28;20020;-35
2022/11/28 04:48:49;;;;;;;4.38;3.03;;;;;;;2.06;81.09;93887.16;5069766;28;20040;-34
2022/11/28 04:51:31;;;;;;;4.00;3.00;;;;;;;2.05;81.99;93884.91;5070148;28;20090;-34
2022/11/28 04:54:05;;;;;;;5.30;3.70;;;;;;;2.03;81.47;93882.69;5069777;28;20032;-34
2022/11/28 04:56:37;;;;;;;4.78;3.67;;;;;;;1.94;81.75;93874.69;5069818;28;20075;-34
2022/11/28 04:59:03;;;;;;;5.25;3.63;;;;;;;2.04;81.64;93892.34;5035567;28;20082;-35
2022/11/28 05:01:30;;;;;;;4.30;3.60;;;;;;;1.96;81.76;93887.81;5051848;28;20043;-34
2022/11/28 05:03:56;;;;;;;7.53;4.70;;;;;;;2.06;81.56;93886.41;5052089;28;20443;-34
2022/11/28 05:06:30;;;;;;;6.55;3.95;;;;;;;1.95;81.45;93883.59;5051628;28;20107;-34
2022/11/28 05:08:56;;;;;;;5.07;4.00;;;;;;;1.96;81.22;93893.25;5070019;28;20401;-35
2022/11/28 05:11:22;;;;;;;5.57;4.15;;;;;;;1.92;81.83;93896.22;5051750;28;20122;-35
2022/11/28 05:13:47;;;;;;;7.65;5.00;;;;;;;1.85;82.35;93887.72;5069845;28;20078;-35
2022/11/28 05:16:14;;;;;;;8.63;6.53;;;;;;;1.73;83.48;93895.03;5069828;28;20443;-34
2022/11/28 05:18:39;;;;;;;9.77;6.13;;;;;;;1.75;83.78;93895.31;5086502;28;20058;-34
2022/11/28 05:21:07;;;;;;;6.32;4.18;;;;;;;1.78;83.37;93893.56;5079025;28;20497;-34
2022/11/28 05:23:37;;;;;;;14.27;7.47;;;;;;;1.80;83.37;93883.72;5069415;28;20032;-34
2022/11/28 05:26:18;;;;;;;10.65;6.72;;;;;;;1.91;82.75;93891.22;5063575;28;20446;-34
2022/11/28 05:28:46;;;;;;;7.07;4.22;;;;;;;1.88;82.71;93895.69;5084901;28;20698;-34
2022/11/28 05:31:12;;;;;;;6.57;4.45;;;;;;;1.91;82.31;93894.69;5073003;28;20028;-34
2022/11/28 05:33:37;;;;;;;6.53;4.45;;;;;;;1.89;82.63;93896.41;5072984;28;20031;-34
2022/11/28 05:36:05;;;;;;;10.73;6.32;;;;;;;1.94;82.26;93898.44;5072808;28;20016;-34
2022/11/28 05:38:31;;;;;;;6.07;4.68;;;;;;;1.95;82.60;93897.22;5073069;28;20099;-34
2022/11/28 05:40:58;;;;;;;7.85;4.70;;;;;;;1.98;82.66;93898.97;5072842;28;20488;-35
2022/11/28 05:43:24;;;;;;;7.60;5.07;;;;;;;2.01;82.20;93892.56;5073067;28;20071;-34
2022/11/28 05:45:49;;;;;;;8.60;5.38;;;;;;;2.07;82.66;93901.53;5072752;28;20436;-34
2022/11/28 05:48:14;;;;;;;10.40;6.25;;;;;;;2.08;82.64;93897.59;5072969;28;20048;-34
2022/11/28 05:50:41;;;;;;;9.88;6.13;;;;;;;2.05;82.38;93893.09;5072688;28;20534;-34
2022/11/28 05:53:06;;;;;;;8.77;5.78;;;;;;;1.97;82.49;93892.03;5072633;28;20538;-34
2022/11/28 05:55:32;;;;;;;9.75;6.35;;;;;;;1.88;83.07;93894.94;5055042;28;20028;-35
2022/11/28 05:57:57;;;;;;;7.80;5.63;;;;;;;1.94;83.63;93893.00;5072821;28;20040;-35
2022/11/28 06:00:23;;;;;;;10.82;6.50;;;;;;;1.95;83.20;93887.06;5072791;28;20676;-34
2022/11/28 06:02:48;;;;;;;11.13;8.02;;;;;;;1.97;83.00;93900.22;5072834;28;20020;-35
2022/11/28 06:05:14;;;;;;;13.43;7.15;;;;;;;1.90;82.70;93889.75;5072358;28;20098;-35
2022/11/28 06:07:39;;;;;;;8.73;6.05;;;;;;;2.07;82.62;93885.94;5072372;28;20078;-35
2022/11/28 06:10:06;;;;;;;11.85;6.60;;;;;;;2.07;82.18;93896.06;5072592;28;20052;-35
2022/11/28 06:12:31;;;;;;;14.88;9.55;;;;;;;2.02;82.72;93888.59;5072301;28;20024;-34
2022/11/28 06:14:57;;;;;;;20.77;13.02;;;;;;;2.07;82.92;93891.38;5072563;28;20507;-35
2022/11/28 06:17:22;;;;;;;52.03;23.00;;;;;;;2.10;83.55;93890.41;5083201;28;20514;-35
2022/11/28 06:19:48;;;;;;;35.72;17.92;;;;;;;2.14;83.27;93898.38;5092510;28;20055;-35
2022/11/28 06:22:13;;;;;;;29.08;14.15;;;;;;;2.08;82.57;93890.13;5092568;28;20020;-35
2022/11/28 06:24:39;;;;;;;12.38;8.00;;;;;;;2.03;83.05;93898.28;5092257;28;20070;-35
2022/11/28 06:27:04;;;;;;;11.18;6.47;;;;;;;2.09;83.62;93894.38;5072181;28;20028;-35
2022/11/28 06:29:29;;;;;;;7.38;4.47;;;;;;;1.99;83.54;93895.03;5078234;28;20024;-35
2022/11/28 06:31:55;;;;;;;9.88;5.53;;;;;;;2.06;82.91;93894.56;5092378;28;20028;-35
2022/11/28 06:34:21;;;;;;;15.02;7.82;;;;;;;2.07;83.09;93888.66;5092159;28;20535;-35
2022/11/28 06:36:47;;;;;;;16.08;7.60;;;;;;;2.20;82.77;93888.25;5092002;28;20016;-34
2022/11/28 06:39:14;;;;;;;9.98;6.45;;;;;;;2.29;82.70;93885.34;5091919;28;20031;-34
2022/11/28 06:41:40;;;;;;;24.15;13.85;;;;;;;2.32;82.77;93889.09;5091986;28;20031;-34
2022/11/28 06:44:05;;;;;;;14.60;8.73;;;;;;;2.34;82.51;93881.91;5091862;28;20024;-34
2022/11/28 06:46:31;;;;;;;12.93;7.47;;;;;;;2.45;81.68;93881.97;5092007;28;20028;-34
2022/11/28 06:48:56;;;;;;;7.32;5.47;;;;;;;2.46;81.98;93880.00;5092101;28;20504;-34
2022/11/28 06:51:22;;;;;;;9.82;6.22;;;;;;;2.50;81.65;93878.56;5091789;28;20399;-35
2022/11/28 06:53:48;;;;;;;51.28;28.63;;;;;;;2.50;81.31;93870.38;5091983;28;20020;-34
2022/11/28 06:56:15;;;;;;;16.08;8.65;;;;;;;2.35;81.40;93872.50;5092028;28;20031;-35
2022/11/28 06:58:42;;;;;;;16.23;8.98;;;;;;;2.61;81.25;93886.06;5091767;28;20028;-34
2022/11/28 07:01:13;;;;;;;13.40;8.77;;;;;;;2.75;81.00;93880.44;5091527;28;20027;-35
2022/11/28 07:03:39;;;;;;;10.05;4.63;;;;;;;2.90;81.29;93883.00;5091475;28;20028;-35
2022/11/28 07:06:05;;;;;;;3.65;3.28;;;;;;;3.00;80.54;93889.72;5091080;28;20093;-34
2022/11/28 07:08:32;;;;;;;3.60;3.20;;;;;;;3.05;80.22;93884.28;5091404;28;20032;-34
2022/11/28 07:10:58;;;;;;;8.00;5.40;;;;;;;3.07;79.83;93862.72;5091383;28;20028;-35
2022/11/28 07:13:23;;;;;;;6.05;4.15;;;;;;;3.19;79.09;93871.69;5064016;28;20025;-34
2022/11/28 07:15:50;;;;;;;4.80;3.30;;;;;;;3.42;78.87;93880.72;5071318;28;20036;-34
2022/11/28 07:18:16;;;;;;;2.70;2.35;;;;;;;3.53;77.99;93884.22;5084702;28;20012;-35
2022/11/28 07:20:42;;;;;;;3.72;2.17;;;;;;;3.55;75.76;93861.91;5091461;28;20099;-35
2022/11/28 07:23:07;;;;;;;10.60;7.47;;;;;;;3.62;76.38;93881.25;5091405;28;20103;-34
2022/11/28 07:25:33;;;;;;;6.07;4.43;;;;;;;3.87;75.52;93871.38;5090823;28;20408;-35
2022/11/28 07:27:59;;;;;;;6.78;4.22;;;;;;;4.07;74.24;93876.59;5088923;28;20020;-35
2022/11/28 07:30:25;;;;;;;7.63;4.68;;;;;;;4.24;73.07;93869.16;5070623;28;20032;-35
2022/11/28 07:32:50;;;;;;;8.68;4.97;;;;;;;4.43;73.13;93874.84;5070735;28;20549;-35
2022/11/28 07:35:16;;;;;;;5.57;4.70;;;;;;;4.49;72.20;93873.59;5070628;28;20050;-35
2022/11/28 07:37:41;;;;;;;5.60;4.13;;;;;;;4.72;71.47;93870.84;5070894;28;20074;-35
2022/11/28 07:40:07;;;;;;;6.88;2.20;;;;;;;4.97;70.72;93864.28;5070700;28;20047;-35
2022/11/28 07:42:32;;;;;;;14.25;9.10;;;;;;;5.27;70.34;93871.41;5070855;28;20029;-35
2022/11/28 07:44:58;;;;;;;9.68;6.95;;;;;;;5.51;69.61;93867.31;5070906;28;20114;-35
2022/11/28 07:47:24;;;;;;;7.75;4.68;;;;;;;5.76;66.73;93875.13;5070458;28;20021;-35
2022/11/28 07:49:49;;;;;;;7.63;5.50;;;;;;;6.18;66.09;93865.66;5069771;28;20032;-35
2022/11/28 07:52:14;;;;;;;5.82;3.70;;;;;;;6.50;65.60;93868.63;5070709;28;20078;-35
2022/11/28 07:54:40;;;;;;;6.63;4.00;;;;;;;6.60;64.09;93870.56;5070390;28;20503;-35
2022/11/28 07:57:05;;;;;;;3.55;2.83;;;;;;;6.76;63.04;93866.16;5070396;28;20021;-35
2022/11/28 07:59:31;;;;;;;6.70;4.50;;;;;;;6.75;63.31;93862.69;5052480;28;20044;-35
2022/11/28 08:01:56;;;;;;;4.32;3.15;;;;;;;6.86;62.17;93862.56;5070526;28;20473;-35
2022/11/28 08:04:22;;;;;;;4.25;2.90;;;;;;;6.78;63.23;93863.63;5070516;28;20021;-35
2022/11/28 08:06:48;;;;;;;5.50;3.10;;;;;;;6.93;62.99;93861.25;5070142;28;20048;-35
2022/11/28 08:09:14;;;;;;;5.65;5.10;;;;;;;7.00;62.69;93854.44;5075743;28;20044;-35
2022/11/28 08:11:40;;;;;;;3.10;2.75;;;;;;;6.98;62.77;93854.94;5090326;28;20036;-35
2022/11/28 08:14:05;;;;;;;2.72;2.10;;;;;;;7.21;62.05;93861.66;5090221;28;20039;-35
2022/11/28 08:16:31;;;;;;;4.82;3.42;;;;;;;7.13;61.90;93852.53;5090576;28;20020;-35
2022/11/28 08:18:59;;;;;;;9.15;5.65;;;;;;;7.07;62.15;93860.09;5071313;28;20028;-35
2022/11/28 08:21:30;;;;;;;3.28;2.45;;;;;;;6.92;61.39;93857.03;5052149;28;20024;-35
2022/11/28 08:23:59;;;;;;;4.25;3.00;;;;;;;6.83;62.19;93852.63;5070286;28;20028;-35
2022/11/28 08:26:25;;;;;;;5.05;3.88;;;;;;;6.87;63.51;93855.81;5083977;28;20024;-35
2022/11/28 08:28:52;;;;;;;5.05;3.65;;;;;;;6.94;63.49;93857.25;5080814;28;20028;-35
2022/11/28 08:31:20;;;;;;;10.10;5.78;;;;;;;6.66;63.07;93854.03;5070318;28;20036;-35
2022/11/28 08:33:48;;;;;;;11.48;6.30;;;;;;;6.63;62.91;93860.53;5069850;28;20020;-35
2022/11/28 08:36:15;;;;;;;7.50;4.88;;;;;;;6.59;63.28;93860.09;5069958;28;20108;-35
2022/11/28 08:38:42;;;;;;;7.35;4.95;;;;;;;6.47;64.68;93853.97;5069964;28;20024;-35
2022/11/28 08:41:13;;;;;;;6.65;4.85;;;;;;;6.56;65.17;93852.91;5069904;28;20063;-35
2022/11/28 08:43:39;;;;;;;3.20;2.90;;;;;;;6.55;64.36;93854.88;5069961;28;20021;-35
2022/11/28 08:46:07;;;;;;;6.22;3.30;;;;;;;6.13;64.54;93843.78;5069796;28;20024;-34
2022/11/28 08:48:34;;;;;;;5.32;3.30;;;;;;;5.80;66.54;93842.00;5070006;28;20059;-35
2022/11/28 08:50:59;;;;;;;3.75;2.60;;;;;;;5.87;67.36;93847.69;5069851;28;20061;-34
2022/11/28 08:53:25;;;;;;;6.32;3.75;;;;;;;5.77;66.96;93843.75;5069757;28;20070;-35
2022/11/28 08:55:51;;;;;;;4.35;3.03;;;;;;;5.72;66.43;93843.78;5069705;28;20032;-35
2022/11/28 08:58:16;;;;;;;3.80;3.08;;;;;;;5.65;67.30;93853.28;5069696;28;20070;-35
2022/11/28 09:00:42;;;;;;;5.18;3.13;;;;;;;5.38;67.41;93845.97;5072053;28;20029;-35
2022/11/28 09:03:12;;;;;;;4.43;3.35;;;;;;;5.42;68.94;93840.22;5073593;28;20030;-35
2022/11/28 09:05:37;;;;;;;5.35;3.08;;;;;;;5.50;68.47;93836.44;5080040;28;20048;-35
2022/11/28 09:08:03;;;;;;;3.38;2.60;;;;;;;5.32;68.07;93831.56;5093645;28;20028;-35
2022/11/28 09:10:28;;;;;;;2.90;2.28;;;;;;;5.15;69.10;93828.91;5093979;28;20115;-35
2022/11/28 09:12:54;;;;;;;4.15;3.08;;;;;;;5.14;69.85;93812.97;5093923;28;20020;-34
2022/11/28 09:15:19;;;;;;;11.75;5.43;;;;;;;5.06;70.13;93815.53;5093602;28;20032;-34
2022/11/28 09:17:45;;;;;;;16.90;7.30;;;;;;;4.88;69.52;93810.59;5084046;28;20028;-35
2022/11/28 09:20:11;;;;;;;4.57;3.10;;;;;;;4.87;70.75;93820.06;5073328;28;20028;-35
2022/11/28 09:22:37;;;;;;;3.92;3.30;;;;;;;4.92;71.47;93822.03;5073443;28;20028;-35
2022/11/28 09:25:02;;;;;;;3.67;2.72;;;;;;;4.89;70.86;93811.34;5074577;28;20500;-34
2022/11/28 09:27:28;;;;;;;3.90;2.40;;;;;;;4.83;70.88;93803.16;5093573;28;20028;-35
2022/11/28 09:29:53;;;;;;;3.30;3.00;;;;;;;4.70;71.66;93811.16;5075000;28;20649;-34
2022/11/28 09:32:19;;;;;;;2.78;2.20;;;;;;;4.64;71.92;93799.50;5073389;28;20043;-34
2022/11/28 09:34:45;;;;;;;3.90;3.28;;;;;;;4.57;72.11;93795.28;5072919;28;20028;-34
2022/11/28 09:37:10;;;;;;;3.10;2.30;;;;;;;4.32;72.27;93793.59;5072903;28;20025;-34
2022/11/28 09:39:35;;;;;;;4.57;3.47;;;;;;;4.22;72.30;93786.19;5072819;28;20109;-34
2022/11/28 09:42:01;;;;;;;4.72;3.72;;;;;;;4.28;73.72;93795.84;5072830;28;20024;-34
2022/11/28 09:44:39;;;;;;;4.25;2.97;;;;;;;4.22;74.35;93786.91;5072925;28;20033;-34
2022/11/28 09:47:11;;;;;;;2.95;2.53;;;;;;;4.28;73.64;93786.91;5073072;28;20338;-34
2022/11/28 09:49:45;;;;;;;2.08;1.67;;;;;;;4.41;74.34;93782.41;5055002;28;20039;-34
2022/11/28 09:52:32;;;;;;;3.75;3.03;;;;;;;4.49;73.55;93777.91;5072757;28;20039;-34
2022/11/28 09:55:00;;;;;;;3.00;2.20;;;;;;;4.35;73.11;93748.13;5073036;28;20100;-34
2022/11/28 09:57:36;;;;;;;2.72;2.45;;;;;;;4.50;73.61;93756.78;5072631;28;20028;-34
2022/11/28 10:00:03;;;;;;;2.35;2.13;;;;;;;4.83;74.24;93750.47;5055042;28;20661;-34
2022/11/28 10:02:38;;;;;;;3.03;1.60;;;;;;;4.95;72.39;93758.09;5084350;28;20085;-34
2022/11/28 10:05:08;;;;;;;2.60;1.85;;;;;;;5.15;71.84;93757.75;5074662;28;20565;-34
2022/11/28 10:07:57;;;;;;;1.92;1.73;;;;;;;5.44;70.25;93761.78;5092400;28;20098;-34
2022/11/28 10:11:02;;;;;;;2.33;1.45;;;;;;;5.63;69.03;93748.22;5074940;28;20036;-35
2022/11/28 10:13:40;;;;;;;1.90;1.63;;;;;;;5.66;69.44;93750.69;5050819;28;20062;-34
2022/11/28 10:16:42;;;;;;;2.58;2.30;;;;;;;5.52;68.91;93746.31;5092408;28;20028;-34
2022/11/28 10:19:15;;;;;;;1.98;1.77;;;;;;;5.52;68.97;93740.84;5027384;28;20039;-35
2022/11/28 10:21:44;;;;;;;2.45;2.22;;;;;;;5.67;68.32;93737.75;5072437;28;20089;-35
2022/11/28 10:24:23;;;;;;;4.25;3.42;;;;;;;5.61;69.11;93731.56;5072011;28;20031;-35
2022/11/28 10:26:58;;;;;;;7.57;4.85;;;;;;;5.81;69.10;93729.16;5089491;28;20452;-34
2022/11/28 10:29:26;;;;;;;6.70;4.00;;;;;;;5.82;67.72;93735.38;5078232;28;20093;-35
2022/11/28 10:31:58;;;;;;;5.60;3.80;;;;;;;5.81;67.34;93733.88;5054333;28;20047;-34
2022/11/28 10:34:44;;;;;;;2.78;2.10;;;;;;;5.99;67.75;93725.03;5071936;28;20071;-34
2022/11/28 10:37:18;;;;;;;1.83;1.73;;;;;;;6.03;65.89;93728.25;5071925;28;20075;-34
2022/11/28 10:39:44;;;;;;;6.95;3.75;;;;;;;6.25;65.74;93692.38;5071698;28;20409;-34
2022/11/28 10:42:31;;;;;;;3.88;2.35;;;;;;;7.14;64.95;93722.25;5071754;28;20028;-35
2022/11/28 10:45:19;;;;;;;4.25;3.03;;;;;;;7.26;63.83;93723.56;5053862;28;20085;-35
2022/11/28 10:48:00;;;;;;;3.27;1.90;;;;;;;7.43;62.79;93715.06;5071398;28;20110;-35
2022/11/28 10:50:48;;;;;;;2.13;1.88;;;;;;;7.91;61.61;93725.06;5053766;28;20154;-35
2022/11/28 10:53:17;;;;;;;3.80;3.13;;;;;;;7.80;58.97;93722.50;5071819;28;20036;-35
2022/11/28 10:55:50;;;;;;;2.87;2.03;;;;;;;7.89;61.04;93717.34;5071805;28;20032;-35
2022/11/28 10:58:48;;;;;;;1.98;1.77;;;;;;;7.71;61.84;93717.41;5061268;28;20039;-35
2022/11/28 11:01:13;;;;;;;1.17;1.08;;;;;;;7.60;59.69;93719.06;5046359;28;20465;-35
2022/11/28 11:03:39;;;;;;;3.20;2.13;;;;;;;7.31;61.32;93722.00;5073759;28;20055;-35
2022/11/28 11:06:05;;;;;;;9.70;4.53;;;;;;;6.80;63.27;93718.41;5073113;28;20439;-35
2022/11/28 11:08:36;;;;;;;7.32;4.20;;;;;;;6.44;64.72;93720.59;5091321;28;20111;-34
2022/11/28 11:11:04;;;;;;;3.55;2.50;;;;;;;5.75;65.77;93712.03;5091680;28;20038;-35
2022/11/28 11:13:35;;;;;;;6.63;3.77;;;;;;;5.77;66.67;93712.25;5091677;28;20028;-35
2022/11/28 11:16:03;;;;;;;3.47;2.70;;;;;;;5.63;67.01;93712.63;5073155;28;20050;-34
2022/11/28 11:18:33;;;;;;;3.95;2.83;;;;;;;5.51;68.09;93714.69;5076062;28;20025;-35
2022/11/28 11:21:16;;;;;;;3.42;2.10;;;;;;;5.52;68.15;93707.25;5071029;28;20594;-34
2022/11/28 11:23:43;;;;;;;2.75;2.47;;;;;;;5.49;68.49;93700.78;5070238;28;20021;-34
2022/11/28 11:26:27;;;;;;;4.25;2.67;;;;;;;5.70;68.97;93690.88;5082800;28;20027;-34
2022/11/28 11:28:53;;;;;;;3.50;2.70;;;;;;;5.58;68.74;93675.81;5081832;28;20020;-34
2022/11/28 11:31:25;;;;;;;4.13;2.70;;;;;;;5.61;69.15;93685.72;5070837;28;20567;-35
2022/11/28 11:33:59;;;;;;;2.67;2.10;;;;;;;5.41;67.54;93679.94;5070729;28;20519;-35
2022/11/28 11:36:28;;;;;;;3.03;2.17;;;;;;;5.47;68.77;93683.38;5052869;28;20082;-34
2022/11/28 11:39:11;;;;;;;1.83;1.73;;;;;;;5.61;68.74;93683.00;5071031;28;20099;-35
2022/11/28 11:41:45;;;;;;;2.30;2.10;;;;;;;5.64;68.52;93681.97;5070552;28;20515;-34
2022/11/28 11:44:13;;;;;;;2.92;2.25;;;;;;;5.41;68.04;93677.94;5052932;28;20020;-34
2022/11/28 11:46:51;;;;;;;4.18;3.08;;;;;;;5.48;69.68;93685.59;5070529;28;20078;-34
2022/11/28 11:49:39;;;;;;;5.77;2.57;;;;;;;5.62;68.57;93679.00;5070524;28;20036;-34
2022/11/28 11:52:11;;;;;;;8.40;5.50;;;;;;;5.86;67.84;93670.09;5070400;28;20032;-35
2022/11/28 11:55:02;;;;;;;3.38;2.63;;;;;;;5.94;66.96;93674.50;5079119;28;20036;-34
2022/11/28 11:57:39;;;;;;;2.67;2.28;;;;;;;6.05;65.77;93671.66;5090953;28;20380;-35
2022/11/28 12:00:18;;;;;;;6.85;2.70;;;;;;;5.93;67.52;93670.28;5072437;28;20088;-34